FDJR

Jericho

Jericho, Swaziland
METAR FDJR 181600Z AUTO 02004KT //// // ////// 23/13 Q1014
Observed Flight Rules
Dec-18 @ 16:00 UTC (41 minutes ago)
Wind
20° at 4 knots
Temperatures Readings
Current 23°C / 73°F
Dewpoint 13°C / 55°F
Humidity 53%
Altimeter 29.94" Hg
Pressure 1014 hPa
Elevation 701
METAR FDJR 181600Z AUTO 02004KT //// // ////// 23/13 Q1014
Observed Flight Rules
Dec-18 @ 16:00 UTC
(41 minutes ago)
Wind
20° at 4 knots
Temperature Dewpoint
23°C / 73°F 13°C / 55°F
Humidity Altimeter Pressure
53% 29.94" Hg 1014 hPa